Time;durP1;ratioP1;P1;durP2;ratioP2;P2;SDS_P1;SDS_P2;PMS_P1;PMS_P2;Temp;Humidity;BMP_temperature;BMP_pressure;BME280_temperature;BME280_humidity;BME280_pressure;Samples;Min_cycle;Max_cycle;Signal;HPM_P1;HPM_P2
2024/02/12 00:01:35;;;;;;;;;;;9.10;99.90;;;;;;6688470;87;20062;-78
2024/02/12 00:11:36;;;;;;;;;;;9.10;99.90;;;;;;6685256;87;20063;-76
2024/02/12 00:21:37;;;;;;;;;;;9.10;99.90;;;;;;6681034;87;20268;-74
2024/02/12 00:31:38;;;;;;;;;;;9.10;99.90;;;;;;6693961;87;20186;-75
2024/02/12 00:41:39;;;;;;;;;;;9.00;99.90;;;;;;6686425;87;20089;-77
2024/02/12 00:51:41;;;;;;;;;;;9.00;99.90;;;;;;6684173;87;20086;-76
2024/02/12 01:01:44;;;;;;;;;;;8.90;99.90;;;;;;6690260;87;20094;-76
2024/02/12 01:11:44;;;;;;;;;;;8.90;99.90;;;;;;6690554;87;20084;-75
2024/02/12 01:21:44;;;;;;;;;;;8.90;99.90;;;;;;6689928;87;20060;-76
2024/02/12 01:31:45;;;;;;;;;;;8.90;99.90;;;;;;6685219;87;20133;-76
2024/02/12 01:41:45;;;;;;;;;;;8.80;99.90;;;;;;6685633;87;20068;-75
2024/02/12 01:51:48;;;;;;;;;;;8.90;99.90;;;;;;6696583;87;20055;-76
2024/02/12 02:01:49;;;;;;;;;;;8.80;99.90;;;;;;6684386;87;20084;-75
2024/02/12 02:11:51;;;;;;;;;;;8.70;99.90;;;;;;6694010;77;20064;-76
2024/02/12 02:21:52;;;;;;;;;;;8.50;99.90;;;;;;6662399;88;20103;-75
2024/02/12 02:31:53;;;;;;;;;;;8.40;99.90;;;;;;6668859;88;20073;-75
2024/02/12 02:41:53;;;;;;;;;;;8.40;99.90;;;;;;6659581;88;20082;-76
2024/02/12 02:51:55;;;;;;;;;;;8.30;99.90;;;;;;6668198;88;20152;-76
2024/02/12 03:01:56;;;;;;;;;;;8.20;99.90;;;;;;6664883;88;20069;-75
2024/02/12 03:11:56;;;;;;;;;;;8.10;99.90;;;;;;6689018;88;20643;-75
2024/02/12 03:21:57;;;;;;;;;;;8.10;99.90;;;;;;6666110;88;20061;-76
2024/02/12 03:31:58;;;;;;;;;;;8.10;99.90;;;;;;6656134;88;20113;-75
2024/02/12 03:41:58;;;;;;;;;;;8.10;99.90;;;;;;6666922;88;20073;-75
2024/02/12 04:02:18;;;;;;;;;;;8.10;99.90;;;;;;6662298;88;20062;-74
2024/02/12 04:12:18;;;;;;;;;;;8.00;99.90;;;;;;6657679;88;20107;-75
2024/02/12 04:22:20;;;;;;;;;;;8.00;99.90;;;;;;6668241;88;20176;-76
2024/02/12 04:32:21;;;;;;;;;;;8.00;99.90;;;;;;6670247;88;20062;-75
2024/02/12 04:42:21;;;;;;;;;;;8.00;99.90;;;;;;6660728;88;20099;-75
2024/02/12 04:52:22;;;;;;;;;;;8.00;99.90;;;;;;6675327;88;20118;-77
2024/02/12 05:02:22;;;;;;;;;;;7.90;99.90;;;;;;6677187;88;20170;-76
2024/02/12 05:12:23;;;;;;;;;;;7.90;99.90;;;;;;6660685;88;20172;-76
2024/02/12 05:22:35;;;;;;;;;;;8.00;99.90;;;;;;6652870;88;20058;-77
2024/02/12 05:32:36;;;;;;;;;;;7.90;99.90;;;;;;6656516;88;20486;-75
2024/02/12 05:42:37;;;;;;;;;;;8.00;99.90;;;;;;6651143;88;20050;-76
2024/02/12 05:52:39;;;;;;;;;;;8.00;99.90;;;;;;6671907;88;20091;-76
2024/02/12 06:02:41;;;;;;;;;;;7.90;99.90;;;;;;6653238;88;20093;-75
2024/02/12 06:12:41;;;;;;;;;;;7.90;99.90;;;;;;6691292;88;20107;-77
2024/02/12 06:22:42;;;;;;;;;;;7.90;99.90;;;;;;6724475;88;20399;-78
2024/02/12 06:32:42;;;;;;;;;;;7.80;99.90;;;;;;6726626;88;20528;-77
2024/02/12 06:42:42;;;;;;;;;;;7.80;99.90;;;;;;6731752;88;20115;-78
2024/02/12 06:52:43;;;;;;;;;;;7.80;99.90;;;;;;6721825;88;20498;-77
2024/02/12 07:02:43;;;;;;;;;;;7.70;99.90;;;;;;6722891;88;20109;-76
2024/02/12 07:12:45;;;;;;;;;;;7.60;99.90;;;;;;6691737;88;20601;-77
2024/02/12 07:22:46;;;;;;;;;;;7.70;99.90;;;;;;6642092;88;20057;-76
2024/02/12 07:32:46;;;;;;;;;;;7.80;99.90;;;;;;6696684;88;20590;-78
2024/02/12 07:42:47;;;;;;;;;;;7.90;99.90;;;;;;6676283;88;20476;-76
2024/02/12 07:52:47;;;;;;;;;;;7.90;99.90;;;;;;6669632;88;20057;-77
2024/02/12 08:02:48;;;;;;;;;;;7.80;99.90;;;;;;6684021;88;20523;-76
2024/02/12 08:12:49;;;;;;;;;;;7.90;99.90;;;;;;6722070;87;20153;-76
2024/02/12 08:22:50;;;;;;;;;;;7.90;99.90;;;;;;6745578;76;20140;-77
2024/02/12 08:32:50;;;;;;;;;;;8.00;99.90;;;;;;6737195;88;20553;-77
2024/02/12 08:42:51;;;;;;;;;;;8.10;99.90;;;;;;6735103;88;20095;-77
2024/02/12 08:52:53;;;;;;;;;;;8.00;99.90;;;;;;6748068;87;20054;-77
2024/02/12 09:02:53;;;;;;;;;;;8.00;99.90;;;;;;6744466;88;20046;-77
2024/02/12 09:12:54;;;;;;;;;;;8.10;99.90;;;;;;6744605;88;20073;-77
2024/02/12 09:22:56;;;;;;;;;;;8.30;99.90;;;;;;6742356;88;20633;-77
2024/02/12 09:32:57;;;;;;;;;;;8.50;99.90;;;;;;6746590;88;20058;-77
2024/02/12 09:42:58;;;;;;;;;;;8.70;99.90;;;;;;6750378;88;20509;-78
2024/02/12 09:52:59;;;;;;;;;;;8.90;99.90;;;;;;6747926;87;20120;-77
2024/02/12 10:02:59;;;;;;;;;;;9.10;99.90;;;;;;6739644;87;20656;-77
2024/02/12 10:13:00;;;;;;;;;;;9.40;99.90;;;;;;6740593;88;20123;-77
2024/02/12 10:23:01;;;;;;;;;;;10.00;99.90;;;;;;6736898;88;20513;-78
2024/02/12 10:33:07;;;;;;;;;;;10.40;99.90;;;;;;6743434;88;20038;-78
2024/02/12 10:43:09;;;;;;;;;;;11.10;99.90;;;;;;6734003;88;20728;-78
2024/02/12 10:53:10;;;;;;;;;;;11.40;99.90;;;;;;6734365;88;20550;-77
2024/02/12 11:03:11;;;;;;;;;;;11.00;99.90;;;;;;6733504;88;20096;-76
2024/02/12 11:13:15;;;;;;;;;;;10.50;99.90;;;;;;6739831;88;20058;-75
2024/02/12 11:23:25;;;;;;;;;;;11.10;99.90;;;;;;6745255;88;20095;-77
2024/02/12 11:33:25;;;;;;;;;;;11.60;99.90;;;;;;6733818;88;20079;-77
2024/02/12 11:43:26;;;;;;;;;;;11.40;99.90;;;;;;6739047;87;20046;-77
2024/02/12 11:53:27;;;;;;;;;;;11.40;99.90;;;;;;6733383;88;20154;-78
2024/02/12 12:03:27;;;;;;;;;;;11.40;99.90;;;;;;6738037;88;20204;-79
2024/02/12 12:13:29;;;;;;;;;;;11.10;99.90;;;;;;6736405;88;20051;-76
2024/02/12 12:23:30;;;;;;;;;;;11.00;99.90;;;;;;6732588;88;20098;-78
2024/02/12 12:33:31;;;;;;;;;;;10.90;99.90;;;;;;6735520;88;20398;-78
2024/02/12 12:43:34;;;;;;;;;;;12.60;99.90;;;;;;6738300;88;20057;-78
2024/02/12 12:53:37;;;;;;;;;;;13.70;99.90;;;;;;6736051;88;20354;-77
2024/02/12 13:03:39;;;;;;;;;;;14.90;99.90;;;;;;6736581;88;20508;-78
2024/02/12 13:13:40;;;;;;;;;;;13.00;99.90;;;;;;6734835;88;20062;-74
2024/02/12 13:23:40;;;;;;;;;;;13.80;99.90;;;;;;6732303;88;20509;-75
2024/02/12 13:33:41;;;;;;;;;;;13.10;99.90;;;;;;6733634;88;20089;-77
2024/02/12 13:43:41;;;;;;;;;;;12.10;99.90;;;;;;6738280;88;20049;-77
2024/02/12 13:53:42;;;;;;;;;;;13.90;99.90;;;;;;6735558;88;20066;-76
2024/02/12 14:03:44;;;;;;;;;;;14.80;99.90;;;;;;6738927;88;20088;-76
2024/02/12 14:13:46;;;;;;;;;;;14.90;99.90;;;;;;6735154;87;20086;-75
2024/02/12 14:23:47;;;;;;;;;;;13.40;99.90;;;;;;6731910;88;20112;-74
2024/02/12 14:33:48;;;;;;;;;;;12.30;99.90;;;;;;6735010;88;20054;-77
2024/02/12 14:43:48;;;;;;;;;;;12.50;99.90;;;;;;6734402;88;20131;-77
2024/02/12 14:53:50;;;;;;;;;;;12.90;99.90;;;;;;6734955;88;20099;-77
2024/02/12 15:03:52;;;;;;;;;;;11.80;99.90;;;;;;6730884;88;20103;-78
2024/02/12 15:13:54;;;;;;;;;;;11.40;99.90;;;;;;6722060;88;20509;-78
2024/02/12 15:23:55;;;;;;;;;;;10.80;99.90;;;;;;6758116;88;20094;-78
2024/02/12 15:33:55;;;;;;;;;;;10.60;99.90;;;;;;6735548;87;20059;-78
2024/02/12 15:43:56;;;;;;;;;;;10.30;99.90;;;;;;6746483;87;20136;-77
2024/02/12 15:53:58;;;;;;;;;;;10.40;99.90;;;;;;6739331;88;20094;-78
2024/02/12 16:03:59;;;;;;;;;;;10.50;99.90;;;;;;6730778;88;20617;-75
2024/02/12 16:13:59;;;;;;;;;;;10.20;99.90;;;;;;6741934;88;20054;-78
2024/02/12 16:24:00;;;;;;;;;;;9.50;99.90;;;;;;6743729;88;20233;-77
2024/02/12 16:34:00;;;;;;;;;;;9.20;99.90;;;;;;6742785;88;20099;-75
2024/02/12 16:44:02;;;;;;;;;;;8.80;99.90;;;;;;6744734;88;20059;-77
2024/02/12 16:54:03;;;;;;;;;;;8.50;99.90;;;;;;6739666;88;20103;-76
2024/02/12 17:04:03;;;;;;;;;;;8.20;99.90;;;;;;6747424;88;20529;-77
2024/02/12 17:14:04;;;;;;;;;;;8.00;99.90;;;;;;6738720;88;20064;-75
2024/02/12 17:24:05;;;;;;;;;;;7.90;99.90;;;;;;6736698;88;20113;-76
2024/02/12 17:34:06;;;;;;;;;;;7.70;99.90;;;;;;6737814;88;20097;-76
2024/02/12 17:44:07;;;;;;;;;;;7.70;99.90;;;;;;6738619;87;20054;-73
2024/02/12 17:54:07;;;;;;;;;;;7.50;99.90;;;;;;6738553;87;20069;-74
2024/02/12 18:04:08;;;;;;;;;;;7.50;99.90;;;;;;6743497;88;20242;-76
2024/02/12 18:14:10;;;;;;;;;;;7.30;99.90;;;;;;6752994;87;20147;-76
2024/02/12 18:24:11;;;;;;;;;;;7.30;99.90;;;;;;6753375;88;20074;-75
2024/02/12 18:34:12;;;;;;;;;;;7.40;99.90;;;;;;6742025;88;20125;-76
2024/02/12 18:44:13;;;;;;;;;;;7.20;99.90;;;;;;6739813;88;20071;-76
2024/02/12 18:54:13;;;;;;;;;;;7.10;99.90;;;;;;6740082;88;20078;-75
2024/02/12 19:04:14;;;;;;;;;;;7.10;99.90;;;;;;6736397;88;20849;-77
2024/02/12 19:14:14;;;;;;;;;;;6.80;99.90;;;;;;6738033;88;20053;-79
2024/02/12 19:24:16;;;;;;;;;;;6.80;99.90;;;;;;6736107;88;20076;-79
2024/02/12 19:34:17;;;;;;;;;;;6.70;99.90;;;;;;6737039;88;20094;-78
2024/02/12 19:44:18;;;;;;;;;;;6.70;99.90;;;;;;6737805;88;20110;-78
2024/02/12 19:54:22;;;;;;;;;;;6.50;99.90;;;;;;6739166;88;20105;-79
2024/02/12 20:04:23;;;;;;;;;;;6.60;99.90;;;;;;6739067;88;20146;-79
2024/02/12 20:14:23;;;;;;;;;;;6.40;99.90;;;;;;6738950;88;20505;-77
2024/02/12 20:24:24;;;;;;;;;;;6.40;99.90;;;;;;6746868;77;20065;-77
2024/02/12 20:34:29;;;;;;;;;;;6.50;99.90;;;;;;6736167;88;20137;-77
2024/02/12 20:44:29;;;;;;;;;;;6.40;99.90;;;;;;6721142;88;20086;-74
2024/02/12 20:54:32;;;;;;;;;;;6.30;99.90;;;;;;6727828;88;20536;-77
2024/02/12 21:04:33;;;;;;;;;;;6.30;99.90;;;;;;6721757;88;20088;-78
2024/02/12 21:14:36;;;;;;;;;;;6.20;99.90;;;;;;6728444;88;20131;-78
2024/02/12 21:24:39;;;;;;;;;;;6.10;99.90;;;;;;6727485;88;20106;-77
2024/02/12 21:34:39;;;;;;;;;;;6.10;99.90;;;;;;6727551;88;20076;-77
2024/02/12 21:44:40;;;;;;;;;;;5.90;99.90;;;;;;6727004;88;20083;-79
2024/02/12 21:54:40;;;;;;;;;;;5.80;99.90;;;;;;6725560;88;20061;-78
2024/02/12 22:04:41;;;;;;;;;;;5.80;99.90;;;;;;6731330;88;20629;-77
2024/02/12 22:14:43;;;;;;;;;;;5.80;99.90;;;;;;6726399;88;20121;-78
2024/02/12 22:24:47;;;;;;;;;;;5.80;99.90;;;;;;6725424;87;20117;-77
2024/02/12 22:34:47;;;;;;;;;;;5.90;99.90;;;;;;6726935;88;20089;-78
2024/02/12 22:44:48;;;;;;;;;;;5.80;99.90;;;;;;6728411;88;20509;-78
2024/02/12 22:54:48;;;;;;;;;;;5.70;99.90;;;;;;6723770;88;20509;-78
2024/02/12 23:04:50;;;;;;;;;;;5.70;99.90;;;;;;6725719;88;20096;-79
2024/02/12 23:14:50;;;;;;;;;;;5.80;99.90;;;;;;6727253;88;20467;-77
2024/02/12 23:24:51;;;;;;;;;;;5.70;99.90;;;;;;6725122;88;20523;-77
2024/02/12 23:34:51;;;;;;;;;;;5.60;99.90;;;;;;6726887;88;20074;-76
2024/02/12 23:44:53;;;;;;;;;;;5.50;99.90;;;;;;6731548;88;20089;-77
2024/02/12 23:54:53;;;;;;;;;;;5.50;99.90;;;;;;6723165;88;20066;-77
